createdAt,value
2022-08-11T00:02:04.007Z,2.00
2022-08-11T00:04:37.215Z,2.20
2022-08-11T00:07:08.541Z,1.88
2022-08-11T00:09:41.767Z,1.95
2022-08-11T00:12:18.996Z,2.30
2022-08-11T00:14:57.700Z,2.08
2022-08-11T00:17:29.365Z,2.67
2022-08-11T00:20:14.071Z,2.60
2022-08-11T00:22:46.429Z,2.45
2022-08-11T00:25:22.930Z,3.17
2022-08-11T00:27:55.277Z,2.47
2022-08-11T00:30:24.619Z,2.75
2022-08-11T00:32:58.837Z,2.25
2022-08-11T00:35:54.679Z,2.67
2022-08-11T00:38:29.202Z,3.88
2022-08-11T00:41:34.022Z,2.85
2022-08-11T00:44:22.123Z,2.60
2022-08-11T00:47:37.795Z,2.58
2022-08-11T00:50:21.914Z,1.70
2022-08-11T00:53:26.510Z,2.83
2022-08-11T00:55:56.243Z,2.28
2022-08-11T00:58:40.166Z,2.30
2022-08-11T01:01:10.702Z,2.13
2022-08-11T01:04:04.536Z,2.67
2022-08-11T01:08:00.446Z,2.83
2022-08-11T01:10:39.328Z,2.65
2022-08-11T01:13:20.079Z,2.63
2022-08-11T01:16:14.200Z,3.05
2022-08-11T01:19:22.100Z,2.00
2022-08-11T01:22:08.107Z,2.35
2022-08-11T01:25:08.934Z,2.65
2022-08-11T01:27:52.246Z,2.50
2022-08-11T01:30:19.611Z,2.53
2022-08-11T01:33:03.685Z,2.67
2022-08-11T01:35:55.312Z,2.42
2022-08-11T01:38:49.035Z,3.10
2022-08-11T01:42:05.929Z,2.83
2022-08-11T01:44:58.843Z,2.50
2022-08-11T01:47:54.279Z,2.78
2022-08-11T01:50:35.650Z,2.75
2022-08-11T01:53:08.742Z,2.50
2022-08-11T01:55:55.224Z,2.20
2022-08-11T01:58:43.621Z,2.95
2022-08-11T02:01:40.848Z,3.60
2022-08-11T02:04:37.916Z,2.80
2022-08-11T02:07:27.516Z,2.47
2022-08-11T02:10:50.492Z,3.08
2022-08-11T02:13:37.290Z,3.22
2022-08-11T02:16:22.994Z,2.65
2022-08-11T02:19:23.447Z,3.65
2022-08-11T02:22:37.356Z,2.83
2022-08-11T02:25:17.719Z,2.58
2022-08-11T02:27:53.035Z,2.53
2022-08-11T02:30:26.077Z,2.95
2022-08-11T02:33:24.039Z,3.22
2022-08-11T02:36:04.750Z,2.58
2022-08-11T02:39:03.597Z,3.30
2022-08-11T02:42:32.817Z,3.03
2022-08-11T02:45:37.026Z,3.22
2022-08-11T02:48:58.331Z,2.95
2022-08-11T02:51:40.737Z,3.75
2022-08-11T02:57:12.666Z,3.08
2022-08-11T03:00:10.298Z,2.80
2022-08-11T03:03:01.150Z,2.97
2022-08-11T03:05:42.053Z,3.00
2022-08-11T03:08:52.548Z,4.03
2022-08-11T03:11:57.315Z,3.55
2022-08-11T03:15:05.260Z,3.42
2022-08-11T03:17:41.855Z,3.38
2022-08-11T03:20:37.968Z,4.13
2022-08-11T03:23:31.397Z,3.08
2022-08-11T03:26:15.742Z,3.10
2022-08-11T03:29:06.340Z,3.53
2022-08-11T03:31:51.804Z,3.58
2022-08-11T03:34:26.990Z,3.42
2022-08-11T03:37:45.740Z,3.40
2022-08-11T03:40:41.419Z,3.65
2022-08-11T03:43:26.818Z,4.35
2022-08-11T03:46:25.458Z,3.28
2022-08-11T03:49:30.603Z,7.40
2022-08-11T03:52:12.270Z,5.75
2022-08-11T03:55:08.723Z,3.83
2022-08-11T03:57:54.678Z,3.30
2022-08-11T04:00:59.011Z,6.75
2022-08-11T04:03:53.198Z,4.05
2022-08-11T04:06:54.085Z,3.58
2022-08-11T04:09:48.314Z,15.77
2022-08-11T04:12:36.667Z,3.85
2022-08-11T04:15:43.240Z,3.65
2022-08-11T04:18:28.133Z,3.28
2022-08-11T04:21:35.190Z,3.90
2022-08-11T04:24:36.438Z,3.65
2022-08-11T04:27:21.207Z,2.75
2022-08-11T04:30:03.668Z,3.95
2022-08-11T04:32:52.634Z,4.22
2022-08-11T04:35:47.296Z,4.30
2022-08-11T04:38:44.650Z,3.45
2022-08-11T04:42:06.404Z,5.75
2022-08-11T04:44:57.290Z,3.65
2022-08-11T04:48:37.415Z,3.90
2022-08-11T04:51:41.913Z,3.72
2022-08-11T04:54:44.636Z,4.05
2022-08-11T04:57:55.796Z,4.60
2022-08-11T05:00:49.597Z,4.30
2022-08-11T05:03:58.096Z,4.35
2022-08-11T05:06:57.848Z,4.28
2022-08-11T05:10:03.523Z,4.60
2022-08-11T05:12:53.301Z,3.67
2022-08-11T05:16:02.468Z,3.88
2022-08-11T05:18:52.164Z,4.07
2022-08-11T05:21:43.282Z,3.70
2022-08-11T05:24:40.943Z,4.10
2022-08-11T05:27:32.865Z,3.60
2022-08-11T05:30:23.829Z,3.60
2022-08-11T05:33:16.266Z,6.53
2022-08-11T05:36:02.532Z,5.03
2022-08-11T05:38:53.408Z,3.60
2022-08-11T05:41:47.710Z,3.50
2022-08-11T05:44:40.442Z,4.82
2022-08-11T05:47:44.233Z,3.08
2022-08-11T05:50:35.009Z,2.10
2022-08-11T05:53:39.450Z,2.75
2022-08-11T05:56:22.024Z,2.47
2022-08-11T05:58:57.485Z,3.00
2022-08-11T06:01:27.665Z,1.58
2022-08-11T06:04:16.218Z,1.85
2022-08-11T06:07:02.810Z,1.80
2022-08-11T06:10:02.966Z,2.90
2022-08-11T06:12:37.442Z,2.58
2022-08-11T06:15:09.002Z,1.67
2022-08-11T06:17:52.144Z,1.95
2022-08-11T06:20:25.797Z,1.90
2022-08-11T06:23:03.807Z,2.00
2022-08-11T06:25:38.060Z,1.75
2022-08-11T06:28:07.310Z,1.42
2022-08-11T06:30:46.412Z,1.15
2022-08-11T06:36:04.818Z,1.52
2022-08-11T06:38:45.956Z,1.42
2022-08-11T06:41:32.016Z,1.10
2022-08-11T06:44:07.204Z,1.50
2022-08-11T06:46:44.953Z,1.48
2022-08-11T06:49:33.242Z,1.58
2022-08-11T06:52:34.731Z,1.15
2022-08-11T06:55:55.747Z,1.60
2022-08-11T06:58:18.945Z,1.77
2022-08-11T07:00:51.202Z,1.05
2022-08-11T07:03:22.256Z,1.27
2022-08-11T07:05:58.538Z,1.10
2022-08-11T07:08:59.324Z,1.77
2022-08-11T07:12:06.769Z,1.15
2022-08-11T07:15:05.017Z,2.00
2022-08-11T07:17:38.266Z,1.52
2022-08-11T07:20:25.185Z,1.63
2022-08-11T07:23:20.039Z,1.35
2022-08-11T07:26:12.227Z,0.77
2022-08-11T07:28:57.904Z,1.88
2022-08-11T07:31:31.579Z,1.00
2022-08-11T07:34:23.923Z,1.33
2022-08-11T07:36:59.496Z,1.15
2022-08-11T07:39:30.902Z,1.08
2022-08-11T07:42:00.191Z,1.48
2022-08-11T07:44:34.386Z,1.85
2022-08-11T07:47:21.013Z,1.58
2022-08-11T07:50:11.762Z,1.20
2022-08-11T07:52:41.044Z,1.10
2022-08-11T07:55:18.509Z,1.42
2022-08-11T07:58:16.959Z,1.33
2022-08-11T08:01:22.038Z,0.80
2022-08-11T08:04:11.905Z,0.90
2022-08-11T08:06:58.765Z,1.40
2022-08-11T08:09:47.771Z,1.08
2022-08-11T08:12:38.899Z,1.02
2022-08-11T08:15:31.583Z,1.63
2022-08-11T08:18:09.972Z,0.90
2022-08-11T08:20:54.943Z,1.20
2022-08-11T08:23:34.599Z,1.33
2022-08-11T08:26:27.033Z,1.50
2022-08-11T08:29:16.396Z,1.55
2022-08-11T08:31:48.476Z,1.35
2022-08-11T08:34:19.279Z,0.88
2022-08-11T08:36:48.714Z,0.90
2022-08-11T08:39:23.110Z,1.27
2022-08-11T08:41:56.155Z,1.25
2022-08-11T08:44:40.628Z,1.30
2022-08-11T08:47:14.724Z,0.90
2022-08-11T08:50:07.425Z,1.05
2022-08-11T08:52:43.702Z,1.40
2022-08-11T08:55:17.938Z,0.80
2022-08-11T08:57:48.556Z,1.52
2022-08-11T09:00:23.064Z,0.90
2022-08-11T09:02:55.938Z,0.80
2022-08-11T09:05:32.374Z,0.85
2022-08-11T09:08:04.768Z,0.85
2022-08-11T09:10:40.421Z,1.27
2022-08-11T09:13:12.285Z,1.05
2022-08-11T09:15:42.566Z,0.43
2022-08-11T09:18:19.965Z,0.88
2022-08-11T09:20:54.876Z,0.73
2022-08-11T09:26:50.539Z,0.80
2022-08-11T09:29:21.423Z,0.80
2022-08-11T09:31:49.079Z,0.45
2022-08-11T09:34:17.226Z,0.82
2022-08-11T09:37:08.888Z,0.88
2022-08-11T09:39:57.596Z,0.50
2022-08-11T09:42:47.692Z,0.80
2022-08-11T09:45:16.889Z,0.80
2022-08-11T09:47:44.881Z,0.95
2022-08-11T09:50:15.808Z,0.88
2022-08-11T09:53:16.965Z,0.90
2022-08-11T09:55:39.346Z,0.75
2022-08-11T09:58:41.728Z,0.90
2022-08-11T10:01:04.101Z,0.90
2022-08-11T10:03:42.318Z,0.68
2022-08-11T10:06:34.348Z,0.80
2022-08-11T10:09:06.328Z,0.63
2022-08-11T10:11:36.561Z,0.60
2022-08-11T10:14:33.100Z,0.60
2022-08-11T10:17:07.947Z,0.80
2022-08-11T10:19:39.620Z,0.88
2022-08-11T10:22:27.701Z,1.00
2022-08-11T10:25:19.609Z,0.60
2022-08-11T10:28:16.698Z,0.50
2022-08-11T10:31:06.796Z,0.60
2022-08-11T10:34:00.848Z,1.45
2022-08-11T10:36:43.468Z,0.82
2022-08-11T10:39:18.047Z,0.65
2022-08-11T10:42:10.791Z,0.50
2022-08-11T10:44:50.768Z,0.30
2022-08-11T10:47:44.355Z,0.57
2022-08-11T10:50:37.555Z,0.80
2022-08-11T10:53:26.776Z,0.68
2022-08-11T10:56:15.767Z,1.10
2022-08-11T10:58:51.389Z,0.60
2022-08-11T11:01:24.303Z,0.55
2022-08-11T11:04:00.779Z,0.50
2022-08-11T11:07:03.698Z,0.50
2022-08-11T11:09:45.354Z,0.60
2022-08-11T11:12:50.357Z,0.50
2022-08-11T11:15:43.176Z,0.50
2022-08-11T11:18:33.510Z,0.60
2022-08-11T11:21:12.395Z,0.60
2022-08-11T11:24:21.372Z,0.75
2022-08-11T11:27:01.574Z,1.20
2022-08-11T11:29:43.672Z,0.68
2022-08-11T11:32:37.695Z,0.70
2022-08-11T11:35:18.023Z,0.93
2022-08-11T11:38:03.578Z,1.02
2022-08-11T11:40:33.167Z,0.57
2022-08-11T11:43:01.303Z,0.30
2022-08-11T11:45:36.346Z,0.70
2022-08-11T11:48:08.786Z,0.40
2022-08-11T11:50:37.762Z,0.60
2022-08-11T11:53:07.968Z,0.60
2022-08-11T11:55:36.346Z,0.45
2022-08-11T11:58:25.563Z,0.82
2022-08-11T12:01:16.802Z,0.40
2022-08-11T12:03:50.572Z,0.32
2022-08-11T12:06:20.797Z,0.50
2022-08-11T12:08:52.991Z,0.68
2022-08-11T12:11:43.681Z,0.52
2022-08-11T12:14:12.554Z,0.60
2022-08-11T12:16:45.171Z,0.38
2022-08-11T12:19:21.428Z,0.30
2022-08-11T12:22:13.413Z,0.60
2022-08-11T12:25:04.031Z,0.22
2022-08-11T12:27:31.675Z,0.63
2022-08-11T12:30:06.023Z,0.30
2022-08-11T12:32:40.457Z,0.43
2022-08-11T12:35:08.785Z,0.63
2022-08-11T12:37:49.426Z,0.80
2022-08-11T12:41:13.808Z,0.68
2022-08-11T12:43:56.656Z,0.90
2022-08-11T12:46:37.909Z,0.35
2022-08-11T12:49:30.994Z,0.30
2022-08-11T12:52:14.819Z,0.50
2022-08-11T12:55:13.209Z,0.40
2022-08-11T12:58:07.790Z,0.80
2022-08-11T13:00:56.325Z,1.10
2022-08-11T13:03:43.663Z,0.60
2022-08-11T13:06:23.175Z,0.40
2022-08-11T13:09:00.950Z,0.90
2022-08-11T13:11:56.042Z,0.30
2022-08-11T13:14:32.919Z,0.30
2022-08-11T13:17:40.227Z,0.40
2022-08-11T13:20:13.237Z,0.30
2022-08-11T13:22:47.240Z,0.20
2022-08-11T13:25:23.584Z,0.30
2022-08-11T13:27:55.841Z,0.30
2022-08-11T13:30:49.214Z,0.30
2022-08-11T13:33:17.683Z,0.55
2022-08-11T13:35:51.867Z,1.08
2022-08-11T13:38:25.870Z,0.40
2022-08-11T13:40:56.449Z,0.68
2022-08-11T13:43:26.534Z,1.27
2022-08-11T13:46:14.659Z,3.95
2022-08-11T13:48:42.875Z,2.92
2022-08-11T13:51:34.823Z,1.60
2022-08-11T13:54:06.008Z,2.00
2022-08-11T13:56:39.691Z,2.45
2022-08-11T13:59:10.414Z,1.42
2022-08-11T14:02:19.352Z,2.20
2022-08-11T14:05:11.535Z,2.33
2022-08-11T14:08:00.799Z,1.10
2022-08-11T14:10:34.806Z,2.05
2022-08-11T14:13:29.508Z,2.05
2022-08-11T14:16:18.571Z,1.75
2022-08-11T14:18:52.206Z,1.60
2022-08-11T14:21:43.361Z,2.30
2022-08-11T14:24:16.389Z,1.42
2022-08-11T14:26:45.320Z,2.10
2022-08-11T14:29:15.474Z,1.98
2022-08-11T14:32:02.413Z,1.63
2022-08-11T14:34:34.604Z,1.98
2022-08-11T14:37:25.071Z,1.27
2022-08-11T14:40:03.171Z,1.60
2022-08-11T14:42:52.511Z,2.33
2022-08-11T14:45:57.712Z,1.98
2022-08-11T14:48:31.008Z,1.67
2022-08-11T14:51:01.446Z,1.23
2022-08-11T14:53:28.585Z,1.73
2022-08-11T14:56:23.724Z,2.13
2022-08-11T14:58:51.257Z,2.10
2022-08-11T15:01:37.768Z,2.38
2022-08-11T15:04:34.800Z,2.53
2022-08-11T15:06:53.401Z,2.20
2022-08-11T15:09:23.062Z,2.65
2022-08-11T15:12:31.488Z,2.40
2022-08-11T15:15:25.347Z,2.08
2022-08-11T15:17:59.707Z,1.75
2022-08-11T15:20:53.688Z,2.00
2022-08-11T15:23:44.439Z,1.10
2022-08-11T15:26:18.487Z,2.08
2022-08-11T15:29:09.319Z,1.67
2022-08-11T15:31:49.359Z,1.90
2022-08-11T15:34:44.322Z,2.00
2022-08-11T15:37:26.426Z,1.88
2022-08-11T15:40:31.678Z,1.15
2022-08-11T15:43:43.609Z,1.33
2022-08-11T15:46:22.312Z,1.02
2022-08-11T15:48:59.678Z,0.80
2022-08-11T15:51:37.168Z,0.70
2022-08-11T15:54:18.699Z,0.63
2022-08-11T15:56:50.115Z,1.02
2022-08-11T15:59:42.253Z,0.70
2022-08-11T16:02:36.201Z,1.67
2022-08-11T16:05:10.593Z,0.80
2022-08-11T16:07:49.090Z,0.45
2022-08-11T16:10:23.051Z,0.77
2022-08-11T16:13:07.304Z,0.30
2022-08-11T16:16:03.151Z,0.50
2022-08-11T16:18:46.823Z,0.50
2022-08-11T16:21:33.917Z,0.30
2022-08-11T16:24:07.416Z,0.20
2022-08-11T16:27:07.804Z,0.20
2022-08-11T16:29:26.319Z,0.20
2022-08-11T16:32:28.254Z,0.52
2022-08-11T16:35:19.779Z,0.68
2022-08-11T16:38:06.863Z,0.28
2022-08-11T16:40:37.511Z,0.45
2022-08-11T16:43:28.897Z,0.37
2022-08-11T16:46:19.185Z,0.40
2022-08-11T16:48:50.861Z,0.40
2022-08-11T16:51:25.547Z,0.50
2022-08-11T16:54:05.089Z,0.50
2022-08-11T16:56:48.591Z,0.50
2022-08-11T16:59:30.704Z,1.77
2022-08-11T17:02:07.806Z,1.67
2022-08-11T17:05:10.641Z,1.67
2022-08-11T17:11:05.937Z,1.13
2022-08-11T17:16:14.409Z,1.13
2022-08-11T17:19:07.733Z,0.85
2022-08-11T17:21:59.573Z,1.50
2022-08-11T17:24:32.308Z,1.20
2022-08-11T17:27:05.683Z,1.17
2022-08-11T17:29:58.587Z,1.50
2022-08-11T17:33:00.665Z,1.05
2022-08-11T17:35:34.031Z,1.17
2022-08-11T17:38:06.063Z,0.50
2022-08-11T17:41:01.418Z,0.70
2022-08-11T17:43:48.942Z,0.80
2022-08-11T17:46:38.292Z,1.02
2022-08-11T17:49:08.406Z,2.45
2022-08-11T17:54:45.604Z,3.60
2022-08-11T17:57:33.617Z,2.67
2022-08-11T18:00:04.102Z,1.80
2022-08-11T18:03:00.878Z,1.83
2022-08-11T18:05:34.085Z,1.52
2022-08-11T18:08:27.987Z,1.65
2022-08-11T18:11:17.508Z,1.35
2022-08-11T18:14:27.632Z,1.57
2022-08-11T18:17:14.054Z,1.55
2022-08-11T18:20:02.418Z,1.40
2022-08-11T18:22:55.778Z,0.98
2022-08-11T18:25:48.405Z,1.80
2022-08-11T18:28:37.569Z,1.23
2022-08-11T18:31:24.991Z,0.90
2022-08-11T18:34:13.540Z,1.48
2022-08-11T18:37:29.133Z,0.90
2022-08-11T18:40:18.859Z,0.77
2022-08-11T18:43:12.283Z,0.90
2022-08-11T18:46:06.825Z,1.10
2022-08-11T18:48:57.529Z,0.95
2022-08-11T18:51:45.044Z,0.80
2022-08-11T18:54:32.417Z,1.20
2022-08-11T18:57:25.019Z,1.30
2022-08-11T19:00:12.623Z,0.88
2022-08-11T19:03:04.939Z,0.60
2022-08-11T19:06:37.008Z,0.80
2022-08-11T19:09:11.488Z,1.20
2022-08-11T19:12:05.728Z,1.00
2022-08-11T19:14:55.924Z,1.10
2022-08-11T19:17:46.234Z,1.27
2022-08-11T19:20:38.027Z,1.10
2022-08-11T19:23:29.280Z,0.90
2022-08-11T19:26:16.862Z,0.90
2022-08-11T19:29:09.461Z,1.10
2022-08-11T19:32:16.730Z,1.13
2022-08-11T19:35:03.317Z,2.25
2022-08-11T19:37:54.150Z,2.38
2022-08-11T19:40:43.060Z,1.38
2022-08-11T19:43:30.526Z,1.92
2022-08-11T19:46:18.807Z,1.08
2022-08-11T19:49:12.305Z,1.00
2022-08-11T19:52:02.410Z,1.15
2022-08-11T19:54:54.020Z,1.17
2022-08-11T19:57:43.830Z,1.20
2022-08-11T20:00:34.264Z,0.70
2022-08-11T20:03:22.284Z,0.70
2022-08-11T20:06:12.076Z,0.77
2022-08-11T20:09:02.734Z,0.73
2022-08-11T20:11:51.141Z,1.50
2022-08-11T20:14:39.382Z,1.42
2022-08-11T20:17:30.781Z,1.52
2022-08-11T20:20:18.393Z,1.30
2022-08-11T20:23:11.098Z,1.00
2022-08-11T20:26:08.688Z,0.98
2022-08-11T20:29:16.055Z,0.60
2022-08-11T20:32:04.347Z,0.80
2022-08-11T20:34:58.185Z,0.75
2022-08-11T20:37:50.250Z,0.82
2022-08-11T20:40:43.159Z,1.00
2022-08-11T20:44:07.727Z,0.82
2022-08-11T20:46:45.040Z,1.23
2022-08-11T20:49:44.908Z,1.63
2022-08-11T20:52:42.569Z,0.85
2022-08-11T20:55:51.932Z,1.00
2022-08-11T21:01:51.938Z,0.60
2022-08-11T21:04:54.860Z,0.85
2022-08-11T21:07:57.080Z,0.80
2022-08-11T21:10:52.003Z,1.20
2022-08-11T21:13:41.551Z,0.95
2022-08-11T21:16:35.011Z,1.08
2022-08-11T21:20:00.034Z,0.88
2022-08-11T21:22:59.475Z,1.23
2022-08-11T21:25:59.462Z,0.67
2022-08-11T21:28:50.484Z,0.90
2022-08-11T21:31:38.786Z,0.68
2022-08-11T21:34:30.940Z,1.08
2022-08-11T21:37:19.488Z,0.88
2022-08-11T21:40:13.580Z,0.90
2022-08-11T21:43:05.167Z,1.35
2022-08-11T21:45:55.646Z,0.98
2022-08-11T21:48:44.737Z,1.30
2022-08-11T21:51:33.111Z,1.65
2022-08-11T21:54:22.053Z,1.45
2022-08-11T21:57:12.955Z,1.30
2022-08-11T22:00:11.581Z,1.85
2022-08-11T22:03:03.398Z,1.33
2022-08-11T22:05:52.763Z,1.40
2022-08-11T22:08:41.328Z,1.08
2022-08-11T22:11:31.851Z,1.05
2022-08-11T22:14:24.161Z,0.77
2022-08-11T22:17:12.346Z,0.65
2022-08-11T22:20:00.857Z,1.15
2022-08-11T22:22:53.437Z,1.10
2022-08-11T22:25:54.301Z,2.03
2022-08-11T22:31:31.253Z,1.40
2022-08-11T22:34:21.065Z,1.00
2022-08-11T22:37:10.118Z,1.55
2022-08-11T22:40:17.014Z,1.88
2022-08-11T22:43:03.292Z,1.17
2022-08-11T22:45:51.826Z,0.93
2022-08-11T22:48:42.049Z,0.70
2022-08-11T22:51:28.641Z,0.50
2022-08-11T22:54:16.361Z,0.90
2022-08-11T22:57:02.312Z,0.63
2022-08-11T22:59:51.382Z,0.50
2022-08-11T23:02:37.663Z,0.60
2022-08-11T23:05:27.563Z,0.47
2022-08-11T23:08:18.645Z,0.80
2022-08-11T23:11:06.288Z,0.80
2022-08-11T23:13:53.242Z,0.70
2022-08-11T23:16:40.483Z,0.90
2022-08-11T23:20:00.356Z,0.70
2022-08-11T23:22:50.161Z,0.90
2022-08-11T23:25:36.676Z,0.80
2022-08-11T23:28:33.491Z,1.05
2022-08-11T23:31:22.954Z,0.70
2022-08-11T23:35:02.639Z,0.95
2022-08-11T23:37:21.729Z,1.15
2022-08-11T23:40:07.837Z,1.15
2022-08-11T23:42:57.783Z,0.90
2022-08-11T23:45:46.566Z,1.10
2022-08-11T23:48:34.036Z,1.35
2022-08-11T23:51:25.386Z,1.40
2022-08-11T23:54:36.903Z,1.38
2022-08-11T23:57:24.074Z,1.70
